sensor_id;sensor_type;location;lat;lon;timestamp;P1;durP1;ratioP1;P2;durP2;ratioP2
12120;SDS011;6124;59.460;17.908;2023-05-07T00:00:24;2.40;;;2.17;;
12120;SDS011;6124;59.460;17.908;2023-05-07T00:02:51;3.07;;;2.30;;
12120;SDS011;6124;59.460;17.908;2023-05-07T00:05:18;3.30;;;2.03;;
12120;SDS011;6124;59.460;17.908;2023-05-07T00:07:46;3.73;;;2.30;;
12120;SDS011;6124;59.460;17.908;2023-05-07T00:10:15;2.97;;;2.30;;
12120;SDS011;6124;59.460;17.908;2023-05-07T00:12:42;4.20;;;2.20;;
12120;SDS011;6124;59.460;17.908;2023-05-07T00:15:10;2.93;;;2.10;;
12120;SDS011;6124;59.460;17.908;2023-05-07T00:17:37;3.87;;;2.10;;
12120;SDS011;6124;59.460;17.908;2023-05-07T00:20:05;3.07;;;2.20;;
12120;SDS011;6124;59.460;17.908;2023-05-07T00:22:32;3.43;;;2.20;;
12120;SDS011;6124;59.460;17.908;2023-05-07T00:25:00;4.07;;;2.33;;
12120;SDS011;6124;59.460;17.908;2023-05-07T00:27:28;2.87;;;2.00;;
12120;SDS011;6124;59.460;17.908;2023-05-07T00:29:56;4.97;;;2.70;;
12120;SDS011;6124;59.460;17.908;2023-05-07T00:32:23;6.03;;;2.40;;
12120;SDS011;6124;59.460;17.908;2023-05-07T00:34:50;3.83;;;2.40;;
12120;SDS011;6124;59.460;17.908;2023-05-07T00:37:18;3.47;;;2.30;;
12120;SDS011;6124;59.460;17.908;2023-05-07T00:39:45;4.00;;;2.63;;
12120;SDS011;6124;59.460;17.908;2023-05-07T00:42:13;3.00;;;2.47;;
12120;SDS011;6124;59.460;17.908;2023-05-07T00:44:42;2.83;;;2.00;;
12120;SDS011;6124;59.460;17.908;2023-05-07T00:47:10;3.60;;;2.33;;
12120;SDS011;6124;59.460;17.908;2023-05-07T00:49:38;6.07;;;2.50;;
12120;SDS011;6124;59.460;17.908;2023-05-07T00:52:06;4.23;;;2.37;;
12120;SDS011;6124;59.460;17.908;2023-05-07T00:54:34;3.90;;;2.07;;
12120;SDS011;6124;59.460;17.908;2023-05-07T00:57:01;2.57;;;2.23;;
12120;SDS011;6124;59.460;17.908;2023-05-07T00:59:29;4.57;;;2.90;;
12120;SDS011;6124;59.460;17.908;2023-05-07T01:01:58;3.97;;;2.50;;
12120;SDS011;6124;59.460;17.908;2023-05-07T01:04:26;6.00;;;2.57;;
12120;SDS011;6124;59.460;17.908;2023-05-07T01:06:53;4.00;;;2.27;;
12120;SDS011;6124;59.460;17.908;2023-05-07T01:09:22;3.70;;;2.30;;
12120;SDS011;6124;59.460;17.908;2023-05-07T01:11:50;4.93;;;2.40;;
12120;SDS011;6124;59.460;17.908;2023-05-07T01:14:17;3.40;;;2.80;;
12120;SDS011;6124;59.460;17.908;2023-05-07T01:16:45;3.33;;;2.53;;
12120;SDS011;6124;59.460;17.908;2023-05-07T01:19:14;3.43;;;2.50;;
12120;SDS011;6124;59.460;17.908;2023-05-07T01:21:45;4.33;;;2.50;;
12120;SDS011;6124;59.460;17.908;2023-05-07T01:24:14;5.13;;;2.93;;
12120;SDS011;6124;59.460;17.908;2023-05-07T01:26:42;4.10;;;3.00;;
12120;SDS011;6124;59.460;17.908;2023-05-07T01:29:10;5.70;;;2.80;;
12120;SDS011;6124;59.460;17.908;2023-05-07T01:31:37;4.00;;;2.50;;
12120;SDS011;6124;59.460;17.908;2023-05-07T01:34:05;3.23;;;2.27;;
12120;SDS011;6124;59.460;17.908;2023-05-07T01:36:33;3.10;;;2.50;;
12120;SDS011;6124;59.460;17.908;2023-05-07T01:39:01;4.10;;;2.50;;
12120;SDS011;6124;59.460;17.908;2023-05-07T01:41:31;4.13;;;2.20;;
12120;SDS011;6124;59.460;17.908;2023-05-07T01:43:58;4.23;;;2.60;;
12120;SDS011;6124;59.460;17.908;2023-05-07T01:46:26;3.73;;;2.30;;
12120;SDS011;6124;59.460;17.908;2023-05-07T01:48:54;3.70;;;2.57;;
12120;SDS011;6124;59.460;17.908;2023-05-07T01:51:21;3.63;;;2.23;;
12120;SDS011;6124;59.460;17.908;2023-05-07T01:53:49;4.07;;;2.60;;
12120;SDS011;6124;59.460;17.908;2023-05-07T01:56:16;3.67;;;2.50;;
12120;SDS011;6124;59.460;17.908;2023-05-07T01:58:46;4.50;;;2.80;;
12120;SDS011;6124;59.460;17.908;2023-05-07T02:01:14;4.60;;;2.43;;
12120;SDS011;6124;59.460;17.908;2023-05-07T02:03:41;2.60;;;2.10;;
12120;SDS011;6124;59.460;17.908;2023-05-07T02:06:08;6.37;;;2.90;;
12120;SDS011;6124;59.460;17.908;2023-05-07T02:08:35;3.53;;;2.40;;
12120;SDS011;6124;59.460;17.908;2023-05-07T02:11:03;4.57;;;2.70;;
12120;SDS011;6124;59.460;17.908;2023-05-07T02:13:31;3.90;;;2.60;;
12120;SDS011;6124;59.460;17.908;2023-05-07T02:16:00;4.40;;;2.53;;
12120;SDS011;6124;59.460;17.908;2023-05-07T02:18:27;3.70;;;2.70;;
12120;SDS011;6124;59.460;17.908;2023-05-07T02:20:55;3.90;;;2.90;;
12120;SDS011;6124;59.460;17.908;2023-05-07T02:23:22;3.50;;;2.50;;
12120;SDS011;6124;59.460;17.908;2023-05-07T02:25:49;3.53;;;2.40;;
12120;SDS011;6124;59.460;17.908;2023-05-07T02:28:17;5.47;;;2.83;;
12120;SDS011;6124;59.460;17.908;2023-05-07T02:30:44;3.40;;;2.50;;
12120;SDS011;6124;59.460;17.908;2023-05-07T02:33:13;3.80;;;2.33;;
12120;SDS011;6124;59.460;17.908;2023-05-07T02:35:40;4.93;;;2.80;;
12120;SDS011;6124;59.460;17.908;2023-05-07T02:38:07;3.57;;;2.70;;
12120;SDS011;6124;59.460;17.908;2023-05-07T02:40:35;3.30;;;2.47;;
12120;SDS011;6124;59.460;17.908;2023-05-07T02:43:04;5.43;;;3.30;;
12120;SDS011;6124;59.460;17.908;2023-05-07T02:45:32;6.27;;;2.67;;
12120;SDS011;6124;59.460;17.908;2023-05-07T02:47:59;4.57;;;2.70;;
12120;SDS011;6124;59.460;17.908;2023-05-07T02:50:28;5.47;;;3.03;;
12120;SDS011;6124;59.460;17.908;2023-05-07T02:52:55;3.07;;;2.67;;
12120;SDS011;6124;59.460;17.908;2023-05-07T02:55:22;6.70;;;2.50;;
12120;SDS011;6124;59.460;17.908;2023-05-07T02:57:50;4.30;;;2.50;;
12120;SDS011;6124;59.460;17.908;2023-05-07T03:00:18;5.20;;;2.93;;
12120;SDS011;6124;59.460;17.908;2023-05-07T03:02:45;5.47;;;2.83;;
12120;SDS011;6124;59.460;17.908;2023-05-07T03:05:13;4.43;;;2.30;;
12120;SDS011;6124;59.460;17.908;2023-05-07T03:07:41;3.93;;;2.50;;
12120;SDS011;6124;59.460;17.908;2023-05-07T03:10:11;4.67;;;2.90;;
12120;SDS011;6124;59.460;17.908;2023-05-07T03:12:38;4.87;;;2.60;;
12120;SDS011;6124;59.460;17.908;2023-05-07T03:15:06;5.43;;;2.93;;
12120;SDS011;6124;59.460;17.908;2023-05-07T03:17:33;5.33;;;2.70;;
12120;SDS011;6124;59.460;17.908;2023-05-07T03:20:01;4.50;;;2.43;;
12120;SDS011;6124;59.460;17.908;2023-05-07T03:22:28;5.97;;;3.27;;
12120;SDS011;6124;59.460;17.908;2023-05-07T03:24:57;3.90;;;2.67;;
12120;SDS011;6124;59.460;17.908;2023-05-07T03:27:24;3.63;;;2.70;;
12120;SDS011;6124;59.460;17.908;2023-05-07T03:29:52;5.43;;;2.80;;
12120;SDS011;6124;59.460;17.908;2023-05-07T03:32:19;3.97;;;2.67;;
12120;SDS011;6124;59.460;17.908;2023-05-07T03:34:46;2.93;;;2.50;;
12120;SDS011;6124;59.460;17.908;2023-05-07T03:37:14;4.90;;;2.70;;
12120;SDS011;6124;59.460;17.908;2023-05-07T03:39:41;5.43;;;2.80;;
12120;SDS011;6124;59.460;17.908;2023-05-07T03:42:10;4.80;;;2.60;;
12120;SDS011;6124;59.460;17.908;2023-05-07T03:44:37;4.30;;;2.63;;
12120;SDS011;6124;59.460;17.908;2023-05-07T03:47:05;5.80;;;2.73;;
12120;SDS011;6124;59.460;17.908;2023-05-07T03:49:32;6.63;;;2.53;;
12120;SDS011;6124;59.460;17.908;2023-05-07T03:52:00;4.57;;;2.80;;
12120;SDS011;6124;59.460;17.908;2023-05-07T03:54:27;4.27;;;2.93;;
12120;SDS011;6124;59.460;17.908;2023-05-07T03:56:54;4.07;;;2.47;;
12120;SDS011;6124;59.460;17.908;2023-05-07T03:59:23;5.17;;;2.57;;
12120;SDS011;6124;59.460;17.908;2023-05-07T04:01:50;3.97;;;2.60;;
12120;SDS011;6124;59.460;17.908;2023-05-07T04:04:18;3.83;;;2.50;;
12120;SDS011;6124;59.460;17.908;2023-05-07T04:06:45;3.70;;;2.17;;
12120;SDS011;6124;59.460;17.908;2023-05-07T04:09:12;2.87;;;2.40;;
12120;SDS011;6124;59.460;17.908;2023-05-07T04:11:40;5.47;;;2.77;;
12120;SDS011;6124;59.460;17.908;2023-05-07T04:14:07;2.80;;;2.27;;
12120;SDS011;6124;59.460;17.908;2023-05-07T04:16:36;4.70;;;2.57;;
12120;SDS011;6124;59.460;17.908;2023-05-07T04:19:03;3.63;;;2.77;;
12120;SDS011;6124;59.460;17.908;2023-05-07T04:21:30;3.20;;;2.60;;
12120;SDS011;6124;59.460;17.908;2023-05-07T04:23:58;5.17;;;2.77;;
12120;SDS011;6124;59.460;17.908;2023-05-07T04:26:25;3.97;;;2.50;;
12120;SDS011;6124;59.460;17.908;2023-05-07T04:28:53;5.20;;;3.20;;
12120;SDS011;6124;59.460;17.908;2023-05-07T04:31:20;7.27;;;3.30;;
12120;SDS011;6124;59.460;17.908;2023-05-07T04:33:49;5.10;;;2.87;;
12120;SDS011;6124;59.460;17.908;2023-05-07T04:36:17;4.97;;;3.33;;
12120;SDS011;6124;59.460;17.908;2023-05-07T04:38:44;6.60;;;2.97;;
12120;SDS011;6124;59.460;17.908;2023-05-07T04:41:12;4.30;;;3.17;;
12120;SDS011;6124;59.460;17.908;2023-05-07T04:43:40;3.87;;;2.70;;
12120;SDS011;6124;59.460;17.908;2023-05-07T04:46:08;6.47;;;3.60;;
12120;SDS011;6124;59.460;17.908;2023-05-07T04:48:35;5.90;;;3.20;;
12120;SDS011;6124;59.460;17.908;2023-05-07T04:51:04;6.43;;;2.80;;
12120;SDS011;6124;59.460;17.908;2023-05-07T04:53:31;6.17;;;3.17;;
12120;SDS011;6124;59.460;17.908;2023-05-07T04:55:59;4.30;;;2.57;;
12120;SDS011;6124;59.460;17.908;2023-05-07T04:58:26;3.93;;;2.87;;
12120;SDS011;6124;59.460;17.908;2023-05-07T05:00:56;4.03;;;2.50;;
12120;SDS011;6124;59.460;17.908;2023-05-07T05:03:23;3.83;;;2.77;;
12120;SDS011;6124;59.460;17.908;2023-05-07T05:05:51;3.87;;;2.50;;
12120;SDS011;6124;59.460;17.908;2023-05-07T05:08:20;5.53;;;2.70;;
12120;SDS011;6124;59.460;17.908;2023-05-07T05:10:47;2.40;;;2.10;;
12120;SDS011;6124;59.460;17.908;2023-05-07T05:13:15;3.00;;;2.33;;
12120;SDS011;6124;59.460;17.908;2023-05-07T05:15:42;3.63;;;2.40;;
12120;SDS011;6124;59.460;17.908;2023-05-07T05:18:10;4.00;;;2.40;;
12120;SDS011;6124;59.460;17.908;2023-05-07T05:20:38;2.87;;;2.13;;
12120;SDS011;6124;59.460;17.908;2023-05-07T05:23:05;2.87;;;2.10;;
12120;SDS011;6124;59.460;17.908;2023-05-07T05:25:34;4.20;;;2.40;;
12120;SDS011;6124;59.460;17.908;2023-05-07T05:28:02;3.83;;;2.30;;
12120;SDS011;6124;59.460;17.908;2023-05-07T05:30:29;3.27;;;2.70;;
12120;SDS011;6124;59.460;17.908;2023-05-07T05:32:57;2.63;;;2.13;;
12120;SDS011;6124;59.460;17.908;2023-05-07T05:35:24;2.60;;;1.97;;
12120;SDS011;6124;59.460;17.908;2023-05-07T05:37:51;3.83;;;2.30;;
12120;SDS011;6124;59.460;17.908;2023-05-07T05:40:19;3.63;;;2.53;;
12120;SDS011;6124;59.460;17.908;2023-05-07T05:42:47;3.27;;;2.13;;
12120;SDS011;6124;59.460;17.908;2023-05-07T05:45:15;4.17;;;2.20;;
12120;SDS011;6124;59.460;17.908;2023-05-07T05:47:42;3.53;;;2.37;;
12120;SDS011;6124;59.460;17.908;2023-05-07T05:50:10;3.10;;;2.50;;
12120;SDS011;6124;59.460;17.908;2023-05-07T05:52:37;3.57;;;2.37;;
12120;SDS011;6124;59.460;17.908;2023-05-07T05:55:06;4.20;;;2.43;;
12120;SDS011;6124;59.460;17.908;2023-05-07T05:57:33;2.73;;;2.30;;
12120;SDS011;6124;59.460;17.908;2023-05-07T06:00:02;3.20;;;2.30;;
12120;SDS011;6124;59.460;17.908;2023-05-07T06:02:30;2.67;;;2.13;;
12120;SDS011;6124;59.460;17.908;2023-05-07T06:04:57;2.70;;;2.30;;
12120;SDS011;6124;59.460;17.908;2023-05-07T06:07:25;4.97;;;2.40;;
12120;SDS011;6124;59.460;17.908;2023-05-07T06:09:52;3.87;;;2.10;;
12120;SDS011;6124;59.460;17.908;2023-05-07T06:12:20;3.13;;;1.90;;
12120;SDS011;6124;59.460;17.908;2023-05-07T06:14:48;2.87;;;2.10;;
12120;SDS011;6124;59.460;17.908;2023-05-07T06:17:16;2.57;;;2.00;;
12120;SDS011;6124;59.460;17.908;2023-05-07T06:19:44;2.57;;;2.00;;
12120;SDS011;6124;59.460;17.908;2023-05-07T06:22:11;2.70;;;1.93;;
12120;SDS011;6124;59.460;17.908;2023-05-07T06:24:38;2.67;;;1.43;;
12120;SDS011;6124;59.460;17.908;2023-05-07T06:27:06;2.33;;;1.83;;
12120;SDS011;6124;59.460;17.908;2023-05-07T06:29:33;2.77;;;1.73;;
12120;SDS011;6124;59.460;17.908;2023-05-07T06:32:07;2.13;;;1.60;;
12120;SDS011;6124;59.460;17.908;2023-05-07T06:34:36;1.63;;;1.53;;
12120;SDS011;6124;59.460;17.908;2023-05-07T06:37:03;2.27;;;1.50;;
12120;SDS011;6124;59.460;17.908;2023-05-07T06:39:30;3.17;;;1.77;;
12120;SDS011;6124;59.460;17.908;2023-05-07T06:41:59;2.80;;;1.73;;
12120;SDS011;6124;59.460;17.908;2023-05-07T06:44:26;2.33;;;1.80;;
12120;SDS011;6124;59.460;17.908;2023-05-07T06:46:54;3.47;;;2.03;;
12120;SDS011;6124;59.460;17.908;2023-05-07T06:49:21;2.87;;;1.70;;
12120;SDS011;6124;59.460;17.908;2023-05-07T06:51:50;2.07;;;1.50;;
12120;SDS011;6124;59.460;17.908;2023-05-07T06:54:17;2.07;;;1.80;;
12120;SDS011;6124;59.460;17.908;2023-05-07T06:56:45;3.57;;;1.80;;
12120;SDS011;6124;59.460;17.908;2023-05-07T06:59:12;2.27;;;1.70;;
12120;SDS011;6124;59.460;17.908;2023-05-07T07:01:40;2.23;;;1.70;;
12120;SDS011;6124;59.460;17.908;2023-05-07T07:04:07;1.70;;;1.60;;
12120;SDS011;6124;59.460;17.908;2023-05-07T07:06:34;2.50;;;1.60;;
12120;SDS011;6124;59.460;17.908;2023-05-07T07:09:03;2.63;;;1.90;;
12120;SDS011;6124;59.460;17.908;2023-05-07T07:11:30;2.20;;;1.80;;
12120;SDS011;6124;59.460;17.908;2023-05-07T07:13:58;2.13;;;1.50;;
12120;SDS011;6124;59.460;17.908;2023-05-07T07:16:25;2.00;;;1.70;;
12120;SDS011;6124;59.460;17.908;2023-05-07T07:18:53;2.80;;;1.60;;
12120;SDS011;6124;59.460;17.908;2023-05-07T07:21:20;3.27;;;1.60;;
12120;SDS011;6124;59.460;17.908;2023-05-07T07:23:47;2.93;;;1.40;;
12120;SDS011;6124;59.460;17.908;2023-05-07T07:26:16;1.87;;;1.50;;
12120;SDS011;6124;59.460;17.908;2023-05-07T07:28:44;3.53;;;1.60;;
12120;SDS011;6124;59.460;17.908;2023-05-07T07:31:11;2.83;;;1.60;;
12120;SDS011;6124;59.460;17.908;2023-05-07T07:33:39;1.63;;;1.53;;
12120;SDS011;6124;59.460;17.908;2023-05-07T07:36:06;1.83;;;1.53;;
12120;SDS011;6124;59.460;17.908;2023-05-07T07:38:34;2.80;;;1.67;;
12120;SDS011;6124;59.460;17.908;2023-05-07T07:41:01;3.47;;;1.70;;
12120;SDS011;6124;59.460;17.908;2023-05-07T07:43:30;2.53;;;1.40;;
12120;SDS011;6124;59.460;17.908;2023-05-07T07:45:57;4.03;;;1.63;;
12120;SDS011;6124;59.460;17.908;2023-05-07T07:48:25;2.00;;;1.50;;
12120;SDS011;6124;59.460;17.908;2023-05-07T07:50:52;2.40;;;1.20;;
12120;SDS011;6124;59.460;17.908;2023-05-07T07:53:20;1.77;;;1.50;;
12120;SDS011;6124;59.460;17.908;2023-05-07T07:55:47;3.47;;;1.70;;
12120;SDS011;6124;59.460;17.908;2023-05-07T07:58:14;2.37;;;1.50;;
12120;SDS011;6124;59.460;17.908;2023-05-07T08:00:43;3.50;;;1.60;;
12120;SDS011;6124;59.460;17.908;2023-05-07T08:03:12;2.20;;;1.50;;
12120;SDS011;6124;59.460;17.908;2023-05-07T08:05:41;1.93;;;1.60;;
12120;SDS011;6124;59.460;17.908;2023-05-07T08:08:09;1.60;;;1.50;;
12120;SDS011;6124;59.460;17.908;2023-05-07T08:10:36;1.40;;;1.30;;
12120;SDS011;6124;59.460;17.908;2023-05-07T08:13:04;1.80;;;1.60;;
12120;SDS011;6124;59.460;17.908;2023-05-07T08:15:32;3.10;;;1.50;;
12120;SDS011;6124;59.460;17.908;2023-05-07T08:18:02;1.27;;;1.17;;
12120;SDS011;6124;59.460;17.908;2023-05-07T08:20:29;1.90;;;1.40;;
12120;SDS011;6124;59.460;17.908;2023-05-07T08:22:57;2.80;;;1.30;;
12120;SDS011;6124;59.460;17.908;2023-05-07T08:25:24;2.73;;;1.70;;
12120;SDS011;6124;59.460;17.908;2023-05-07T08:27:51;2.70;;;1.40;;
12120;SDS011;6124;59.460;17.908;2023-05-07T08:30:19;1.83;;;1.30;;
12120;SDS011;6124;59.460;17.908;2023-05-07T08:32:46;1.90;;;1.60;;
12120;SDS011;6124;59.460;17.908;2023-05-07T08:35:15;2.07;;;1.60;;
12120;SDS011;6124;59.460;17.908;2023-05-07T08:37:42;2.60;;;1.50;;
12120;SDS011;6124;59.460;17.908;2023-05-07T08:40:10;3.60;;;1.70;;
12120;SDS011;6124;59.460;17.908;2023-05-07T08:42:37;2.20;;;1.60;;
12120;SDS011;6124;59.460;17.908;2023-05-07T08:45:06;1.77;;;1.40;;
12120;SDS011;6124;59.460;17.908;2023-05-07T08:47:39;2.43;;;1.50;;
12120;SDS011;6124;59.460;17.908;2023-05-07T08:50:07;1.57;;;1.40;;
12120;SDS011;6124;59.460;17.908;2023-05-07T08:52:36;3.77;;;1.67;;
12120;SDS011;6124;59.460;17.908;2023-05-07T08:55:04;2.70;;;1.60;;
12120;SDS011;6124;59.460;17.908;2023-05-07T08:57:31;2.90;;;1.63;;
12120;SDS011;6124;59.460;17.908;2023-05-07T08:59:59;2.37;;;1.70;;
12120;SDS011;6124;59.460;17.908;2023-05-07T09:02:26;4.90;;;1.83;;
12120;SDS011;6124;59.460;17.908;2023-05-07T09:04:53;1.97;;;1.40;;
12120;SDS011;6124;59.460;17.908;2023-05-07T09:07:21;1.60;;;1.50;;
12120;SDS011;6124;59.460;17.908;2023-05-07T09:09:49;1.63;;;1.50;;
12120;SDS011;6124;59.460;17.908;2023-05-07T09:12:17;1.90;;;1.40;;
12120;SDS011;6124;59.460;17.908;2023-05-07T09:14:45;2.27;;;1.63;;
12120;SDS011;6124;59.460;17.908;2023-05-07T09:17:12;3.17;;;1.40;;
12120;SDS011;6124;59.460;17.908;2023-05-07T09:19:39;2.97;;;1.43;;
12120;SDS011;6124;59.460;17.908;2023-05-07T09:22:07;2.03;;;1.47;;
12120;SDS011;6124;59.460;17.908;2023-05-07T09:24:34;2.27;;;1.60;;
12120;SDS011;6124;59.460;17.908;2023-05-07T09:27:04;3.73;;;1.87;;
12120;SDS011;6124;59.460;17.908;2023-05-07T09:29:32;3.00;;;1.60;;
12120;SDS011;6124;59.460;17.908;2023-05-07T09:32:00;1.40;;;1.30;;
12120;SDS011;6124;59.460;17.908;2023-05-07T09:34:28;1.77;;;1.43;;
12120;SDS011;6124;59.460;17.908;2023-05-07T09:36:56;3.53;;;1.60;;
12120;SDS011;6124;59.460;17.908;2023-05-07T09:39:23;3.17;;;1.50;;
12120;SDS011;6124;59.460;17.908;2023-05-07T09:41:50;2.13;;;1.70;;
12120;SDS011;6124;59.460;17.908;2023-05-07T09:44:21;2.20;;;1.60;;
12120;SDS011;6124;59.460;17.908;2023-05-07T09:46:50;2.10;;;1.60;;
12120;SDS011;6124;59.460;17.908;2023-05-07T09:49:21;2.67;;;1.57;;
12120;SDS011;6124;59.460;17.908;2023-05-07T09:51:49;2.67;;;1.50;;
12120;SDS011;6124;59.460;17.908;2023-05-07T09:54:16;4.10;;;1.80;;
12120;SDS011;6124;59.460;17.908;2023-05-07T09:56:44;3.27;;;1.90;;
12120;SDS011;6124;59.460;17.908;2023-05-07T09:59:12;2.73;;;1.90;;
12120;SDS011;6124;59.460;17.908;2023-05-07T10:01:42;2.17;;;1.70;;
12120;SDS011;6124;59.460;17.908;2023-05-07T10:04:09;3.20;;;1.80;;
12120;SDS011;6124;59.460;17.908;2023-05-07T10:06:37;3.30;;;1.63;;
12120;SDS011;6124;59.460;17.908;2023-05-07T10:09:05;2.57;;;1.60;;
12120;SDS011;6124;59.460;17.908;2023-05-07T10:11:32;2.20;;;1.70;;
12120;SDS011;6124;59.460;17.908;2023-05-07T10:14:00;3.43;;;1.70;;
12120;SDS011;6124;59.460;17.908;2023-05-07T10:16:28;1.87;;;1.50;;
12120;SDS011;6124;59.460;17.908;2023-05-07T10:18:59;4.20;;;1.63;;
12120;SDS011;6124;59.460;17.908;2023-05-07T10:21:27;1.87;;;1.60;;
12120;SDS011;6124;59.460;17.908;2023-05-07T10:23:57;3.20;;;1.70;;
12120;SDS011;6124;59.460;17.908;2023-05-07T10:26:25;3.37;;;1.50;;
12120;SDS011;6124;59.460;17.908;2023-05-07T10:28:55;3.20;;;1.70;;
12120;SDS011;6124;59.460;17.908;2023-05-07T10:31:27;2.90;;;1.60;;
12120;SDS011;6124;59.460;17.908;2023-05-07T10:34:02;2.13;;;1.30;;
12120;SDS011;6124;59.460;17.908;2023-05-07T10:36:33;3.77;;;1.70;;
12120;SDS011;6124;59.460;17.908;2023-05-07T10:39:01;2.80;;;1.63;;
12120;SDS011;6124;59.460;17.908;2023-05-07T10:41:28;2.60;;;1.50;;
12120;SDS011;6124;59.460;17.908;2023-05-07T10:43:55;2.47;;;1.63;;
12120;SDS011;6124;59.460;17.908;2023-05-07T10:46:26;1.60;;;1.40;;
12120;SDS011;6124;59.460;17.908;2023-05-07T10:49:07;3.70;;;1.97;;
12120;SDS011;6124;59.460;17.908;2023-05-07T10:51:36;1.80;;;1.40;;
12120;SDS011;6124;59.460;17.908;2023-05-07T10:54:19;3.50;;;1.30;;
12120;SDS011;6124;59.460;17.908;2023-05-07T10:56:47;3.47;;;1.40;;
12120;SDS011;6124;59.460;17.908;2023-05-07T10:59:34;1.50;;;1.40;;
12120;SDS011;6124;59.460;17.908;2023-05-07T11:02:07;3.50;;;1.80;;
12120;SDS011;6124;59.460;17.908;2023-05-07T11:04:37;1.57;;;1.30;;
12120;SDS011;6124;59.460;17.908;2023-05-07T11:07:17;2.57;;;1.50;;
12120;SDS011;6124;59.460;17.908;2023-05-07T11:09:54;3.23;;;1.40;;
12120;SDS011;6124;59.460;17.908;2023-05-07T11:15:06;2.07;;;1.60;;
12120;SDS011;6124;59.460;17.908;2023-05-07T11:17:34;2.13;;;1.50;;
12120;SDS011;6124;59.460;17.908;2023-05-07T11:20:03;3.37;;;1.73;;
12120;SDS011;6124;59.460;17.908;2023-05-07T11:22:37;3.03;;;1.73;;
12120;SDS011;6124;59.460;17.908;2023-05-07T11:25:06;3.40;;;1.60;;
12120;SDS011;6124;59.460;17.908;2023-05-07T11:27:33;1.47;;;1.33;;
12120;SDS011;6124;59.460;17.908;2023-05-07T11:30:00;2.77;;;1.60;;
12120;SDS011;6124;59.460;17.908;2023-05-07T11:32:28;1.80;;;1.40;;
12120;SDS011;6124;59.460;17.908;2023-05-07T11:34:56;3.07;;;1.60;;
12120;SDS011;6124;59.460;17.908;2023-05-07T11:37:25;2.07;;;1.57;;
12120;SDS011;6124;59.460;17.908;2023-05-07T11:40:02;2.37;;;1.50;;
12120;SDS011;6124;59.460;17.908;2023-05-07T11:42:31;3.33;;;1.37;;
12120;SDS011;6124;59.460;17.908;2023-05-07T11:44:59;5.33;;;1.70;;
12120;SDS011;6124;59.460;17.908;2023-05-07T11:47:26;1.47;;;1.30;;
12120;SDS011;6124;59.460;17.908;2023-05-07T11:49:56;2.30;;;1.40;;
12120;SDS011;6124;59.460;17.908;2023-05-07T11:52:25;2.27;;;1.50;;
12120;SDS011;6124;59.460;17.908;2023-05-07T11:54:53;3.07;;;1.70;;
12120;SDS011;6124;59.460;17.908;2023-05-07T11:57:21;2.00;;;1.40;;
12120;SDS011;6124;59.460;17.908;2023-05-07T11:59:52;2.13;;;1.30;;
12120;SDS011;6124;59.460;17.908;2023-05-07T12:02:19;2.13;;;1.30;;
12120;SDS011;6124;59.460;17.908;2023-05-07T12:04:47;1.60;;;1.50;;
12120;SDS011;6124;59.460;17.908;2023-05-07T12:07:14;2.63;;;1.43;;
12120;SDS011;6124;59.460;17.908;2023-05-07T12:09:44;2.43;;;1.37;;
12120;SDS011;6124;59.460;17.908;2023-05-07T12:12:12;2.00;;;1.37;;
12120;SDS011;6124;59.460;17.908;2023-05-07T12:14:40;2.93;;;1.70;;
12120;SDS011;6124;59.460;17.908;2023-05-07T12:17:09;1.80;;;1.20;;
12120;SDS011;6124;59.460;17.908;2023-05-07T12:19:37;1.73;;;1.60;;
12120;SDS011;6124;59.460;17.908;2023-05-07T12:22:05;2.40;;;1.30;;
12120;SDS011;6124;59.460;17.908;2023-05-07T12:24:42;2.00;;;1.37;;
12120;SDS011;6124;59.460;17.908;2023-05-07T12:27:11;2.63;;;1.40;;
12120;SDS011;6124;59.460;17.908;2023-05-07T12:29:38;2.60;;;1.63;;
12120;SDS011;6124;59.460;17.908;2023-05-07T12:32:12;1.53;;;1.43;;
12120;SDS011;6124;59.460;17.908;2023-05-07T12:34:40;1.67;;;1.33;;
12120;SDS011;6124;59.460;17.908;2023-05-07T12:37:07;3.00;;;1.50;;
12120;SDS011;6124;59.460;17.908;2023-05-07T12:39:35;1.47;;;1.37;;
12120;SDS011;6124;59.460;17.908;2023-05-07T12:42:02;2.90;;;1.43;;
12120;SDS011;6124;59.460;17.908;2023-05-07T12:44:31;1.97;;;1.60;;
12120;SDS011;6124;59.460;17.908;2023-05-07T12:47:01;4.50;;;1.50;;
12120;SDS011;6124;59.460;17.908;2023-05-07T12:49:28;2.90;;;1.40;;
12120;SDS011;6124;59.460;17.908;2023-05-07T12:51:55;3.93;;;1.60;;
12120;SDS011;6124;59.460;17.908;2023-05-07T12:54:29;2.63;;;1.47;;
12120;SDS011;6124;59.460;17.908;2023-05-07T12:57:00;1.60;;;1.50;;
12120;SDS011;6124;59.460;17.908;2023-05-07T12:59:32;2.17;;;1.33;;
12120;SDS011;6124;59.460;17.908;2023-05-07T13:02:00;2.13;;;1.40;;
12120;SDS011;6124;59.460;17.908;2023-05-07T13:04:27;3.43;;;1.33;;
12120;SDS011;6124;59.460;17.908;2023-05-07T13:06:54;2.47;;;1.40;;
12120;SDS011;6124;59.460;17.908;2023-05-07T13:09:22;3.23;;;1.57;;
12120;SDS011;6124;59.460;17.908;2023-05-07T13:11:49;3.23;;;1.40;;
12120;SDS011;6124;59.460;17.908;2023-05-07T13:14:16;1.47;;;1.37;;
12120;SDS011;6124;59.460;17.908;2023-05-07T13:16:47;1.83;;;1.40;;
12120;SDS011;6124;59.460;17.908;2023-05-07T13:19:14;2.60;;;1.50;;
12120;SDS011;6124;59.460;17.908;2023-05-07T13:21:42;3.23;;;1.40;;
12120;SDS011;6124;59.460;17.908;2023-05-07T13:24:09;2.40;;;1.53;;
12120;SDS011;6124;59.460;17.908;2023-05-07T13:26:37;1.80;;;1.40;;
12120;SDS011;6124;59.460;17.908;2023-05-07T13:29:04;2.07;;;1.40;;
12120;SDS011;6124;59.460;17.908;2023-05-07T13:31:31;2.90;;;1.60;;
12120;SDS011;6124;59.460;17.908;2023-05-07T13:34:00;1.77;;;1.50;;
12120;SDS011;6124;59.460;17.908;2023-05-07T13:36:27;3.03;;;1.80;;
12120;SDS011;6124;59.460;17.908;2023-05-07T13:38:58;3.47;;;1.80;;
12120;SDS011;6124;59.460;17.908;2023-05-07T13:41:25;2.70;;;1.40;;
12120;SDS011;6124;59.460;17.908;2023-05-07T13:43:53;2.60;;;1.93;;
12120;SDS011;6124;59.460;17.908;2023-05-07T13:46:20;1.70;;;1.57;;
12120;SDS011;6124;59.460;17.908;2023-05-07T13:48:47;3.13;;;1.90;;
12120;SDS011;6124;59.460;17.908;2023-05-07T13:51:17;2.97;;;1.60;;
12120;SDS011;6124;59.460;17.908;2023-05-07T13:53:44;3.13;;;1.80;;
12120;SDS011;6124;59.460;17.908;2023-05-07T13:56:11;2.47;;;1.70;;
12120;SDS011;6124;59.460;17.908;2023-05-07T13:58:39;2.10;;;1.50;;
12120;SDS011;6124;59.460;17.908;2023-05-07T14:01:06;3.30;;;1.70;;
12120;SDS011;6124;59.460;17.908;2023-05-07T14:03:34;1.87;;;1.40;;
12120;SDS011;6124;59.460;17.908;2023-05-07T14:06:03;3.57;;;1.57;;
12120;SDS011;6124;59.460;17.908;2023-05-07T14:08:31;3.53;;;1.60;;
12120;SDS011;6124;59.460;17.908;2023-05-07T14:10:59;4.60;;;1.53;;
12120;SDS011;6124;59.460;17.908;2023-05-07T14:13:26;2.93;;;1.53;;
12120;SDS011;6124;59.460;17.908;2023-05-07T14:15:55;2.93;;;1.80;;
12120;SDS011;6124;59.460;17.908;2023-05-07T14:18:23;1.87;;;1.70;;
12120;SDS011;6124;59.460;17.908;2023-05-07T14:20:50;3.30;;;1.70;;
12120;SDS011;6124;59.460;17.908;2023-05-07T14:23:17;2.57;;;1.80;;
12120;SDS011;6124;59.460;17.908;2023-05-07T14:25:48;2.57;;;1.60;;
12120;SDS011;6124;59.460;17.908;2023-05-07T14:28:16;3.23;;;1.83;;
12120;SDS011;6124;59.460;17.908;2023-05-07T14:30:43;4.03;;;1.90;;
12120;SDS011;6124;59.460;17.908;2023-05-07T14:33:10;2.87;;;1.60;;
12120;SDS011;6124;59.460;17.908;2023-05-07T14:35:38;4.30;;;2.20;;
12120;SDS011;6124;59.460;17.908;2023-05-07T14:38:05;5.73;;;1.80;;
12120;SDS011;6124;59.460;17.908;2023-05-07T14:40:32;3.47;;;1.67;;
12120;SDS011;6124;59.460;17.908;2023-05-07T14:43:01;3.07;;;1.63;;
12120;SDS011;6124;59.460;17.908;2023-05-07T14:45:31;2.37;;;1.60;;
12120;SDS011;6124;59.460;17.908;2023-05-07T14:47:59;4.93;;;1.80;;
12120;SDS011;6124;59.460;17.908;2023-05-07T14:50:26;2.90;;;1.47;;
12120;SDS011;6124;59.460;17.908;2023-05-07T14:52:53;2.67;;;1.60;;
12120;SDS011;6124;59.460;17.908;2023-05-07T14:55:20;3.50;;;1.47;;